Time;durP1;ratioP1;P1;durP2;ratioP2;P2;SDS_P1;SDS_P2;PMS_P1;PMS_P2;Temp;Humidity;BMP_temperature;BMP_pressure;BME280_temperature;BME280_humidity;BME280_pressure;Samples;Min_cycle;Max_cycle;Signal;HPM_P1;HPM_P2
2023/05/17 00:01:23;;;;;;;;;14.00;11.50;23.50;45.70;;;;;;111650;1241;49219;-71
2023/05/17 00:03:53;;;;;;;;;13.75;12.75;23.50;45.70;;;;;;111709;1237;49410;-70
2023/05/17 00:06:20;;;;;;;;;14.00;13.00;23.50;46.00;;;;;;111886;1237;45232;-71
2023/05/17 00:08:46;;;;;;;;;15.75;12.75;23.50;45.80;;;;;;111764;1240;56114;-71
2023/05/17 00:11:13;;;;;;;;;12.50;11.50;23.50;45.70;;;;;;111630;1237;54070;-70
2023/05/17 00:13:41;;;;;;;;;15.00;11.50;23.50;45.70;;;;;;111751;1238;49311;-70
2023/05/17 00:16:08;;;;;;;;;12.75;12.00;23.50;45.70;;;;;;111979;1241;49645;-71
2023/05/17 00:18:35;;;;;;;;;12.50;11.00;23.50;45.70;;;;;;111689;1237;45908;-71
2023/05/17 00:21:02;;;;;;;;;13.00;11.33;23.50;45.60;;;;;;111768;1240;55357;-72
2023/05/17 00:23:29;;;;;;;;;14.25;12.00;23.50;46.20;;;;;;111742;1237;53226;-70
2023/05/17 00:25:56;;;;;;;;;13.75;12.75;23.50;46.00;;;;;;112026;1238;50097;-70
2023/05/17 00:28:23;;;;;;;;;12.75;10.50;23.50;45.70;;;;;;111723;1240;49609;-70
2023/05/17 00:30:49;;;;;;;;;13.75;12.00;23.50;45.70;;;;;;111711;1240;46900;-71
2023/05/17 00:33:16;;;;;;;;;11.00;10.00;23.50;45.60;;;;;;111744;1240;55793;-70
2023/05/17 00:35:43;;;;;;;;;12.00;9.75;23.50;45.70;;;;;;111930;1242;54642;-71
2023/05/17 00:38:10;;;;;;;;;14.25;12.50;23.50;46.30;;;;;;111682;1237;49177;-71
2023/05/17 00:40:37;;;;;;;;;12.75;11.75;23.50;45.70;;;;;;111654;1240;49794;-71
2023/05/17 00:43:04;;;;;;;;;15.00;12.50;23.50;45.70;;;;;;111804;1240;45468;-70
2023/05/17 00:45:31;;;;;;;;;13.50;11.00;23.50;45.70;;;;;;112022;1240;56104;-70
2023/05/17 00:47:58;;;;;;;;;12.50;11.00;23.50;45.70;;;;;;111668;1240;54076;-72
2023/05/17 00:50:24;;;;;;;;;14.00;11.50;23.50;45.70;;;;;;111677;1238;49233;-71
2023/05/17 00:52:51;;;;;;;;;14.50;12.75;23.50;45.90;;;;;;111735;1237;49910;-71
2023/05/17 00:55:19;;;;;;;;;14.00;12.00;23.40;45.60;;;;;;111834;1237;46490;-73
2023/05/17 00:57:46;;;;;;;;;14.75;13.75;23.40;45.70;;;;;;111666;1236;56845;-72
2023/05/17 01:00:13;;;;;;;;;14.25;12.00;23.50;45.70;;;;;;111581;1237;53357;-73
2023/05/17 01:02:43;;;;;;;;;15.50;12.75;23.50;45.90;;;;;;111364;1238;49997;-72
2023/05/17 01:05:10;;;;;;;;;13.75;11.75;23.50;45.70;;;;;;111985;1237;50257;-71
2023/05/17 01:07:37;;;;;;;;;13.67;11.00;23.40;45.60;;;;;;111688;1239;46690;-70
2023/05/17 01:10:04;;;;;;;;;12.00;11.00;23.50;45.70;;;;;;111663;1241;55345;-71
2023/05/17 01:13:13;;;;;;;;;16.00;12.00;23.50;45.90;;;;;;111662;1237;54086;-71
2023/05/17 01:15:46;;;;;;;;;13.50;11.25;23.50;45.70;;;;;;111900;1240;49538;-72
2023/05/17 01:18:58;;;;;;;;;15.75;12.50;23.50;45.70;;;;;;111625;1242;48787;-72
2023/05/17 01:21:53;;;;;;;;;12.00;11.00;23.50;45.80;;;;;;111419;1241;47337;-71
2023/05/17 01:24:27;;;;;;;;;14.00;13.00;23.50;45.50;;;;;;111893;1237;55549;-71
2023/05/17 01:26:55;;;;;;;;;11.00;9.00;23.50;45.60;;;;;;111765;1240;54135;-71
2023/05/17 01:29:26;;;;;;;;;12.50;11.00;23.50;45.50;;;;;;111653;1241;49621;-69
2023/05/17 01:31:55;;;;;;;;;12.00;11.00;23.50;45.50;;;;;;111529;1237;48812;-71
2023/05/17 01:34:26;;;;;;;;;11.00;10.00;23.50;45.50;;;;;;111958;1237;45683;-72
2023/05/17 01:36:53;;;;;;;;;15.00;12.00;23.50;45.60;;;;;;111757;1240;57019;-71
2023/05/17 01:39:21;;;;;;;;;13.75;12.75;23.50;45.60;;;;;;111581;1240;53163;-70
2023/05/17 01:41:59;;;;;;;;;12.00;11.00;23.50;45.60;;;;;;111766;1238;49212;-71
2023/05/17 01:44:39;;;;;;;;;11.50;10.25;23.40;45.50;;;;;;112081;1236;49809;-71
2023/05/17 01:47:31;;;;;;;;;13.67;12.00;23.40;45.60;;;;;;111755;1238;45779;-70
2023/05/17 01:49:58;;;;;;;;;14.50;12.00;23.40;45.50;;;;;;111687;1238;55533;-73
2023/05/17 01:52:33;;;;;;;;;13.75;12.75;23.50;45.80;;;;;;111697;1237;53460;-71
2023/05/17 01:55:06;;;;;;;;;12.75;11.75;23.40;45.70;;;;;;111918;1236;49682;-71
2023/05/17 01:57:35;;;;;;;;;14.00;12.00;23.40;45.60;;;;;;111681;1237;49779;-72
2023/05/17 02:00:08;;;;;;;;;14.00;12.00;23.40;45.60;;;;;;111625;1237;45369;-69
2023/05/17 02:02:35;;;;;;;;;14.00;10.67;23.40;45.50;;;;;;111784;1237;56714;-70
2023/05/17 02:05:02;;;;;;;;;13.00;12.00;23.40;45.50;;;;;;111987;1241;53589;-71
2023/05/17 02:07:29;;;;;;;;;14.00;11.75;23.40;45.70;;;;;;111680;1241;49669;-71
2023/05/17 02:09:56;;;;;;;;;14.50;12.00;23.40;45.50;;;;;;111780;1241;49431;-71
2023/05/17 02:12:24;;;;;;;;;13.00;12.00;23.40;45.50;;;;;;111607;1237;46861;-71
2023/05/17 02:14:51;;;;;;;;;10.25;9.00;23.40;45.60;;;;;;111991;1240;55270;-70
2023/05/17 02:17:18;;;;;;;;;13.00;12.00;23.40;45.60;;;;;;111799;1237;54281;-70
2023/05/17 02:19:45;;;;;;;;;13.33;10.67;23.40;45.60;;;;;;111680;1237;48794;-70
2023/05/17 02:22:12;;;;;;;;;14.00;11.00;23.40;45.60;;;;;;111747;1237;50149;-71
2023/05/17 02:24:38;;;;;;;;;13.00;12.00;23.40;45.60;;;;;;111992;1240;46069;-71
2023/05/17 02:27:05;;;;;;;;;12.25;11.25;23.40;45.60;;;;;;111667;1240;54986;-71
2023/05/17 02:29:32;;;;;;;;;12.75;10.75;23.40;45.60;;;;;;111762;1240;54142;-70
2023/05/17 02:31:59;;;;;;;;;13.75;12.75;23.40;45.60;;;;;;111813;1238;50511;-72
2023/05/17 02:34:26;;;;;;;;;14.00;13.00;23.40;45.60;;;;;;111981;1240;50377;-71
2023/05/17 02:36:53;;;;;;;;;13.00;10.33;23.30;45.50;;;;;;111701;1236;45953;-71
2023/05/17 02:39:20;;;;;;;;;13.75;12.75;23.40;45.60;;;;;;111687;1241;55267;-70
2023/05/17 02:41:47;;;;;;;;;13.00;11.00;23.40;45.80;;;;;;111765;1237;53630;-71
2023/05/17 02:44:14;;;;;;;;;12.00;11.00;23.30;45.70;;;;;;111875;1238;48941;-71
2023/05/17 02:46:41;;;;;;;;;11.50;10.25;23.30;45.60;;;;;;111895;1240;49789;-71
2023/05/17 02:49:07;;;;;;;;;12.00;11.00;23.30;45.80;;;;;;111760;1236;45890;-71
2023/05/17 02:51:34;;;;;;;;;14.00;13.00;23.30;45.50;;;;;;111503;1237;55068;-70
2023/05/17 02:54:01;;;;;;;;;15.75;12.00;23.30;45.50;;;;;;111610;1237;53203;-71
2023/05/17 02:56:28;;;;;;;;;12.67;11.67;23.30;45.60;;;;;;111924;1238;49549;-71
2023/05/17 02:58:56;;;;;;;;;18.00;12.00;23.30;45.60;;;;;;111678;1237;50499;-71
2023/05/17 03:01:23;;;;;;;;;12.00;11.00;23.40;45.60;;;;;;111685;1240;45737;-71
2023/05/17 03:03:50;;;;;;;;;12.50;11.00;23.30;45.70;;;;;;111720;1241;56008;-71
2023/05/17 03:06:16;;;;;;;;;14.00;11.00;23.30;45.60;;;;;;112055;1246;52983;-71
2023/05/17 03:08:43;;;;;;;;;13.75;12.75;23.30;45.60;;;;;;111637;1237;49793;-72
2023/05/17 03:11:10;;;;;;;;;13.75;12.75;23.30;45.50;;;;;;111768;1240;49882;-71
2023/05/17 03:13:37;;;;;;;;;13.75;12.75;23.30;45.50;;;;;;111785;1240;46039;-71
2023/05/17 03:16:04;;;;;;;;;14.00;13.00;23.30;45.60;;;;;;112051;1240;56621;-70
2023/05/17 03:18:31;;;;;;;;;13.50;12.50;23.30;45.60;;;;;;111770;1236;54286;-70
2023/05/17 03:20:58;;;;;;;;;13.00;11.00;23.30;45.60;;;;;;111728;1240;48937;-70
2023/05/17 03:23:25;;;;;;;;;15.25;14.25;23.30;45.60;;;;;;111740;1246;49461;-72
2023/05/17 03:25:52;;;;;;;;;13.75;13.00;23.30;46.60;;;;;;112017;1240;47896;-72
2023/05/17 03:28:19;;;;;;;;;14.33;12.67;23.30;46.40;;;;;;111765;1240;55493;-72
2023/05/17 03:30:46;;;;;;;;;16.00;12.50;23.30;46.20;;;;;;111717;1240;54435;-72
2023/05/17 03:33:13;;;;;;;;;14.25;12.00;23.30;46.10;;;;;;111694;1241;49205;-73
2023/05/17 03:35:40;;;;;;;;;15.00;12.25;23.30;46.10;;;;;;111921;1237;49463;-74
2023/05/17 03:38:07;;;;;;;;;12.75;11.75;23.30;46.20;;;;;;111792;1236;45578;-72
2023/05/17 03:40:34;;;;;;;;;11.25;10.25;23.30;46.10;;;;;;111695;1236;55844;-73
2023/05/17 03:43:01;;;;;;;;;10.50;9.25;23.30;46.00;;;;;;111766;1240;53959;-73
2023/05/17 03:45:28;;;;;;;;;12.00;11.00;23.30;45.50;;;;;;112014;1236;49641;-75
2023/05/17 03:47:55;;;;;;;;;13.67;12.67;23.30;46.20;;;;;;111752;1236;50620;-73
2023/05/17 03:50:22;;;;;;;;;11.75;10.50;23.40;46.00;;;;;;111789;1240;45729;-73
2023/05/17 03:52:49;;;;;;;;;13.33;11.00;23.40;46.10;;;;;;111769;1238;56286;-73
2023/05/17 03:55:16;;;;;;;;;12.00;10.50;23.40;45.90;;;;;;111945;1237;53733;-73
2023/05/17 03:57:43;;;;;;;;;14.00;13.00;23.40;46.00;;;;;;111725;1240;49906;-72
2023/05/17 04:00:11;;;;;;;;;15.25;13.50;23.40;45.90;;;;;;111495;1237;50032;-72
2023/05/17 04:02:38;;;;;;;;;13.75;12.75;23.40;45.90;;;;;;111587;1237;46638;-73
2023/05/17 04:05:05;;;;;;;;;18.00;14.33;23.40;46.00;;;;;;112080;1237;55458;-73
2023/05/17 04:07:32;;;;;;;;;15.50;12.25;23.30;46.00;;;;;;111791;1240;53220;-71
2023/05/17 04:10:01;;;;;;;;;17.75;15.00;23.40;46.00;;;;;;111666;1247;49153;-67
2023/05/17 04:12:29;;;;;;;;;12.75;11.75;23.40;46.00;;;;;;111637;1237;48711;-66
2023/05/17 04:14:56;;;;;;;;;39.50;28.75;23.40;46.00;;;;;;111930;1240;46485;-65
2023/05/17 04:17:23;;;;;;;;;45.50;31.75;23.30;48.30;;;;;;111677;1240;55789;-65
2023/05/17 04:19:50;;;;;;;;;50.25;34.00;23.30;50.00;;;;;;111721;1238;54046;-66
2023/05/17 04:22:16;;;;;;;;;43.75;30.50;23.30;50.30;;;;;;111762;1237;49006;-66
2023/05/17 04:24:43;;;;;;;;;42.75;31.50;23.30;50.70;;;;;;112045;1240;49060;-66
2023/05/17 04:27:10;;;;;;;;;40.50;27.75;23.30;50.40;;;;;;111729;1236;45673;-65
2023/05/17 04:29:37;;;;;;;;;41.00;30.75;23.40;50.50;;;;;;111681;1236;55378;-65
2023/05/17 04:32:06;;;;;;;;;39.50;28.00;23.40;50.60;;;;;;111551;1237;54179;-65
2023/05/17 04:34:32;;;;;;;;;41.25;29.00;23.40;50.40;;;;;;111979;1240;49439;-65
2023/05/17 04:36:59;;;;;;;;;39.00;29.75;23.40;50.50;;;;;;111699;1238;49824;-65
2023/05/17 04:39:27;;;;;;;;;38.00;27.67;23.40;50.40;;;;;;111702;1237;45633;-65
2023/05/17 04:41:54;;;;;;;;;42.50;28.50;23.50;50.40;;;;;;111706;1237;55942;-65
2023/05/17 04:44:21;;;;;;;;;37.67;29.00;23.40;50.40;;;;;;111971;1236;54425;-64
2023/05/17 04:46:47;;;;;;;;;40.00;26.00;23.40;50.40;;;;;;111706;1241;49890;-65
2023/05/17 04:49:14;;;;;;;;;45.75;32.50;23.50;50.60;;;;;;111352;1243;49695;-65
2023/05/17 04:51:41;;;;;;;;;30.75;28.00;23.50;50.30;;;;;;111758;1240;45258;-65
2023/05/17 04:54:08;;;;;;;;;31.00;26.00;23.50;50.50;;;;;;111807;1240;55457;-64
2023/05/17 04:56:35;;;;;;;;;40.25;27.50;23.50;50.30;;;;;;111853;1236;54008;-64
2023/05/17 04:59:02;;;;;;;;;35.00;26.67;23.50;50.30;;;;;;111670;1239;49139;-65
2023/05/17 05:01:29;;;;;;;;;33.75;26.25;23.50;50.20;;;;;;111688;1238;49196;-66
2023/05/17 05:03:57;;;;;;;;;33.75;26.25;23.50;50.30;;;;;;111701;1240;45959;-66
2023/05/17 05:06:24;;;;;;;;;38.33;26.33;23.50;50.10;;;;;;112054;1237;56290;-66
2023/05/17 05:08:51;;;;;;;;;35.25;27.25;23.50;50.10;;;;;;111691;1238;53834;-66
2023/05/17 05:11:18;;;;;;;;;25.00;22.00;23.50;50.00;;;;;;111667;1237;49740;-65
2023/05/17 05:13:45;;;;;;;;;27.33;23.33;23.60;50.20;;;;;;111703;1241;50206;-66
2023/05/17 05:16:12;;;;;;;;;30.00;23.33;23.60;49.40;;;;;;111419;1243;45149;-72
2023/05/17 05:18:39;;;;;;;;;30.00;23.00;23.60;49.90;;;;;;111744;1236;55388;-70
2023/05/17 05:21:06;;;;;;;;;28.75;23.00;23.60;50.00;;;;;;111413;1237;54129;-70
2023/05/17 05:23:33;;;;;;;;;29.33;24.33;23.60;49.80;;;;;;111469;1238;49290;-70
2023/05/17 05:26:00;;;;;;;;;39.25;28.25;23.60;49.90;;;;;;111296;1238;48907;-70
2023/05/17 05:28:27;;;;;;;;;44.00;32.00;23.60;50.00;;;;;;111543;1237;45466;-69
2023/05/17 05:30:59;;;;;;;;;48.33;33.67;23.60;49.90;;;;;;111572;1237;56704;-69
2023/05/17 05:33:26;;;;;;;;;54.33;31.33;23.60;50.00;;;;;;111628;1237;54565;-69
2023/05/17 05:35:53;;;;;;;;;53.00;35.75;23.60;50.00;;;;;;111598;1241;49396;-69
2023/05/17 05:38:20;;;;;;;;;49.00;34.25;23.60;50.00;;;;;;111619;1238;49000;-69
2023/05/17 05:40:47;;;;;;;;;51.75;33.00;23.60;50.10;;;;;;111550;1238;46135;-68
2023/05/17 05:43:14;;;;;;;;;46.50;32.00;23.60;49.90;;;;;;111614;1240;55445;-70
2023/05/17 05:45:44;;;;;;;;;49.25;36.50;23.60;49.90;;;;;;111884;1240;53461;-69
2023/05/17 05:48:13;;;;;;;;;55.50;35.50;23.60;50.00;;;;;;111644;1237;49142;-68
2023/05/17 05:50:41;;;;;;;;;50.00;34.00;23.60;50.10;;;;;;111632;1240;48876;-68
2023/05/17 05:53:10;;;;;;;;;48.00;33.75;23.70;49.90;;;;;;111418;1238;46206;-68
2023/05/17 05:55:41;;;;;;;;;49.50;31.50;23.70;49.80;;;;;;111870;1237;56458;-68
2023/05/17 05:58:08;;;;;;;;;48.33;33.00;23.70;49.80;;;;;;111582;1243;53283;-69
2023/05/17 06:00:36;;;;;;;;;46.25;35.00;23.70;49.70;;;;;;111686;1240;49633;-69
2023/05/17 06:03:03;;;;;;;;;54.00;34.00;23.80;49.80;;;;;;111743;1236;48972;-69
2023/05/17 06:05:30;;;;;;;;;52.25;34.25;23.70;49.80;;;;;;112075;1237;46454;-69
2023/05/17 06:07:57;;;;;;;;;42.50;31.50;23.70;49.60;;;;;;111659;1238;56464;-68
2023/05/17 06:10:24;;;;;;;;;44.75;31.75;23.80;49.60;;;;;;111751;1237;54246;-68
2023/05/17 06:12:51;;;;;;;;;47.25;32.75;23.80;49.50;;;;;;111785;1240;50507;-68
2023/05/17 06:15:18;;;;;;;;;44.25;31.75;23.70;49.10;;;;;;111999;1237;49551;-68
2023/05/17 06:17:45;;;;;;;;;43.25;28.25;23.70;49.60;;;;;;111661;1240;46525;-69
2023/05/17 06:20:12;;;;;;;;;38.33;29.67;23.70;49.40;;;;;;111739;1240;55639;-68
2023/05/17 06:22:39;;;;;;;;;37.00;29.00;23.70;49.30;;;;;;111720;1240;54918;-69
2023/05/17 06:25:06;;;;;;;;;43.25;29.75;23.70;49.30;;;;;;112060;1240;49221;-68
2023/05/17 06:27:33;;;;;;;;;37.50;29.00;23.70;49.40;;;;;;111699;1240;49736;-67
2023/05/17 06:30:01;;;;;;;;;37.00;25.25;23.70;49.30;;;;;;111640;1240;46068;-67
2023/05/17 06:32:27;;;;;;;;;43.25;28.25;23.80;49.30;;;;;;111408;1241;55215;-68
2023/05/17 06:34:55;;;;;;;;;37.50;28.25;23.70;49.20;;;;;;111829;1237;54105;-67
2023/05/17 06:37:22;;;;;;;;;38.50;29.75;23.70;49.50;;;;;;111732;1238;49515;-67
2023/05/17 06:39:51;;;;;;;;;33.25;27.00;23.80;49.30;;;;;;111591;1236;48987;-67
2023/05/17 06:42:18;;;;;;;;;34.25;26.75;23.80;49.20;;;;;;111732;1237;46059;-69
2023/05/17 06:44:45;;;;;;;;;37.50;26.25;23.70;49.20;;;;;;111993;1240;55381;-69
2023/05/17 06:47:12;;;;;;;;;36.00;25.50;23.70;49.20;;;;;;111776;1237;54127;-68
2023/05/17 06:49:38;;;;;;;;;31.00;27.00;23.70;49.30;;;;;;111742;1238;48826;-68
2023/05/17 06:52:05;;;;;;;;;34.33;24.33;23.80;49.30;;;;;;111746;1237;49469;-68
2023/05/17 06:54:32;;;;;;;;;33.25;20.75;23.70;49.10;;;;;;112015;1240;45459;-68
2023/05/17 06:57:03;;;;;;;;;33.50;26.25;23.70;49.10;;;;;;111726;1240;56682;-68
2023/05/17 06:59:30;;;;;;;;;37.67;26.00;23.80;49.10;;;;;;111396;1239;53691;-67
2023/05/17 07:01:58;;;;;;;;;27.75;21.00;23.80;49.30;;;;;;111583;1237;49708;-67
2023/05/17 07:04:26;;;;;;;;;28.75;23.25;23.80;49.10;;;;;;111555;1235;49390;-67
2023/05/17 07:06:52;;;;;;;;;31.75;25.75;23.70;49.00;;;;;;111535;1241;45321;-67
2023/05/17 07:09:20;;;;;;;;;26.00;24.50;23.70;49.00;;;;;;111672;1240;56507;-67
2023/05/17 07:11:47;;;;;;;;;27.50;25.25;23.70;49.00;;;;;;111677;1240;54712;-68
2023/05/17 07:14:14;;;;;;;;;33.50;29.50;23.70;49.00;;;;;;111885;1240;49257;-67
2023/05/17 07:16:41;;;;;;;;;26.00;24.25;23.70;49.00;;;;;;111854;1240;49025;-75
2023/05/17 07:19:08;;;;;;;;;36.50;25.50;23.70;49.00;;;;;;111843;1236;46228;-66
2023/05/17 07:21:35;;;;;;;;;27.75;23.25;23.70;49.40;;;;;;111633;1241;55360;-65
2023/05/17 07:24:02;;;;;;;;;27.50;20.75;23.70;49.30;;;;;;111535;1238;54412;-64
2023/05/17 07:26:29;;;;;;;;;25.75;19.00;23.60;49.20;;;;;;111631;1240;49271;-64
2023/05/17 07:28:56;;;;;;;;;32.00;20.67;23.60;49.00;;;;;;111547;1240;50200;-63
2023/05/17 07:31:23;;;;;;;;;19.00;16.25;23.60;48.70;;;;;;111547;1238;46348;-61
2023/05/17 07:33:50;;;;;;;;;23.00;17.00;23.60;49.00;;;;;;111829;1240;56374;-62
2023/05/17 07:36:17;;;;;;;;;22.50;15.25;23.60;48.90;;;;;;111837;1238;53601;-62
2023/05/17 07:38:44;;;;;;;;;25.67;18.00;23.60;49.00;;;;;;111793;1240;50530;-61
2023/05/17 07:41:12;;;;;;;;;23.50;20.75;23.70;49.40;;;;;;111787;1236;49155;-61
2023/05/17 07:43:39;;;;;;;;;23.50;19.75;23.70;49.50;;;;;;111771;1237;45881;-62
2023/05/17 07:46:06;;;;;;;;;22.50;15.00;23.70;49.50;;;;;;111740;1238;55696;-63
2023/05/17 07:48:33;;;;;;;;;21.67;17.00;23.80;49.30;;;;;;111698;1247;53514;-64
2023/05/17 07:51:00;;;;;;;;;21.50;15.50;23.80;49.20;;;;;;111657;1236;49848;-65
2023/05/17 07:53:27;;;;;;;;;19.25;15.00;23.80;49.20;;;;;;111719;1237;49432;-63
2023/05/17 07:55:54;;;;;;;;;23.50;15.75;23.90;49.30;;;;;;111621;1237;45614;-63
2023/05/17 07:58:21;;;;;;;;;16.33;14.00;23.90;49.20;;;;;;111634;1241;55324;-62
2023/05/17 08:00:48;;;;;;;;;17.75;15.00;24.00;49.00;;;;;;111489;1237;53842;-62
2023/05/17 08:03:15;;;;;;;;;20.00;17.00;24.00;48.70;;;;;;111629;1237;50510;-63
2023/05/17 08:05:42;;;;;;;;;19.67;16.00;24.00;48.70;;;;;;111609;1237;49755;-65
2023/05/17 08:08:09;;;;;;;;;25.00;19.00;24.00;47.90;;;;;;111668;1238;47003;-63
2023/05/17 08:10:36;;;;;;;;;19.00;13.50;24.10;48.60;;;;;;111987;1240;55131;-64
2023/05/17 08:13:05;;;;;;;;;19.75;16.00;24.10;48.50;;;;;;112074;1240;53497;-63
2023/05/17 08:15:32;;;;;;;;;23.00;17.00;24.20;48.60;;;;;;111843;1240;49413;-63
2023/05/17 08:17:59;;;;;;;;;18.50;16.75;24.20;48.50;;;;;;111761;1246;49891;-64
2023/05/17 08:20:25;;;;;;;;;13.25;12.25;24.30;48.40;;;;;;111665;1238;45606;-63
2023/05/17 08:22:52;;;;;;;;;18.50;14.00;24.30;48.10;;;;;;111742;1236;55416;-64
2023/05/17 08:25:20;;;;;;;;;15.67;13.33;24.30;48.10;;;;;;111667;1240;54460;-62
2023/05/17 08:27:47;;;;;;;;;13.00;12.00;24.40;48.00;;;;;;111665;1238;49850;-64
2023/05/17 08:30:14;;;;;;;;;19.75;16.00;24.40;48.00;;;;;;111726;1240;49894;-64
2023/05/17 08:32:41;;;;;;;;;17.50;14.00;24.40;48.30;;;;;;112192;1240;45475;-63
2023/05/17 08:35:08;;;;;;;;;15.75;14.75;24.50;48.20;;;;;;111520;1238;55390;-63
2023/05/17 08:37:35;;;;;;;;;18.50;14.00;24.50;48.10;;;;;;111875;1238;54681;-65
2023/05/17 08:40:03;;;;;;;;;16.50;15.50;24.60;47.80;;;;;;112038;1240;50291;-63
2023/05/17 08:42:31;;;;;;;;;19.50;14.00;24.60;48.00;;;;;;111951;1241;49178;-64
2023/05/17 08:44:58;;;;;;;;;13.75;12.00;24.60;48.00;;;;;;112024;1238;45959;-65
2023/05/17 08:47:32;;;;;;;;;19.00;15.00;;;;;;;;111919;1246;56370;-65
2023/05/17 08:49:59;;;;;;;;;19.00;14.67;24.70;47.20;;;;;;111999;1239;54096;-67
2023/05/17 08:52:29;;;;;;;;;19.00;15.50;24.80;47.70;;;;;;112016;1240;50183;-65
2023/05/17 08:55:01;;;;;;;;;18.75;15.75;24.80;47.70;;;;;;111842;1238;49769;-65
2023/05/17 08:57:29;;;;;;;;;67.00;46.50;24.90;47.60;;;;;;111718;1241;45627;-70
2023/05/17 08:59:59;;;;;;;;;127.67;98.00;24.90;47.30;;;;;;110899;1239;775886;-64
2023/05/17 09:02:30;;;;;;;;;93.33;73.67;24.90;47.50;;;;;;111818;1241;53666;-68
2023/05/17 09:04:57;;;;;;;;;97.67;76.33;24.90;47.30;;;;;;112054;1240;51480;-64
2023/05/17 09:07:24;;;;;;;;;103.00;75.33;24.90;47.30;;;;;;111564;1240;49826;-68
2023/05/17 09:09:52;;;;;;;;;83.75;64.25;25.00;47.80;;;;;;111912;1236;45293;-67
2023/05/17 09:12:20;;;;;;;;;86.00;61.00;25.00;47.20;;;;;;111908;1237;55865;-64
2023/05/17 09:14:48;;;;;;;;;70.33;51.00;25.00;47.20;;;;;;111735;1240;53602;-68
2023/05/17 09:17:19;;;;;;;;;87.75;63.25;25.00;47.00;;;;;;111712;1237;49565;-66
2023/05/17 09:19:48;;;;;;;;;154.75;125.50;25.10;47.00;;;;;;111751;1243;49606;-62
2023/05/17 09:22:19;;;;;;;;;197.00;149.00;25.10;47.00;;;;;;111898;1237;45863;-66
2023/05/17 09:24:46;;;;;;;;;175.50;137.75;25.10;47.00;;;;;;111855;1240;55919;-73
2023/05/17 09:27:17;;;;;;;;;164.25;137.00;25.10;46.90;;;;;;111931;1238;54215;-71
2023/05/17 09:29:45;;;;;;;;;185.00;142.75;25.10;47.00;;;;;;111920;1240;49150;-71
2023/05/17 09:32:13;;;;;;;;;208.50;150.25;25.20;47.00;;;;;;111721;1243;50244;-65
2023/05/17 09:34:41;;;;;;;;;228.00;178.67;25.20;46.80;;;;;;111853;1240;46458;-70
2023/05/17 09:37:15;;;;;;;;;94.25;78.00;25.20;46.50;;;;;;111658;1237;56435;-73
2023/05/17 09:39:44;;;;;;;;;55.25;36.75;25.20;45.10;;;;;;112064;1237;54398;-76
2023/05/17 09:42:13;;;;;;;;;44.50;34.75;25.20;44.70;;;;;;111856;1237;49479;-75
2023/05/17 09:44:46;;;;;;;;;62.00;44.00;25.20;44.80;;;;;;111951;1236;49821;-74
2023/05/17 09:47:23;;;;;;;;;55.33;42.00;25.20;44.90;;;;;;112129;1240;46780;-79
2023/05/17 09:49:51;;;;;;;;;46.25;35.75;25.20;44.50;;;;;;111890;1237;55421;-78
2023/05/17 09:52:19;;;;;;;;;38.67;30.67;25.20;44.60;;;;;;111898;1237;53386;-76
2023/05/17 09:54:54;;;;;;;;;44.50;33.75;25.20;44.80;;;;;;111895;1236;50354;-77
2023/05/17 09:57:22;;;;;;;;;32.25;28.50;25.20;44.70;;;;;;111871;1237;49384;-78
2023/05/17 09:59:50;;;;;;;;;47.00;36.75;25.30;45.00;;;;;;111868;1241;45858;-75
2023/05/17 10:02:22;;;;;;;;;49.25;37.75;25.20;45.00;;;;;;111742;1237;55477;-74
2023/05/17 10:04:50;;;;;;;;;50.75;35.75;25.20;44.80;;;;;;111799;1238;53613;-76
2023/05/17 10:07:18;;;;;;;;;48.67;31.67;25.20;45.00;;;;;;111626;1241;49365;-74
2023/05/17 10:09:47;;;;;;;;;34.50;28.00;25.20;44.90;;;;;;111644;1240;50303;-76
2023/05/17 10:12:16;;;;;;;;;39.25;29.00;25.30;44.80;;;;;;111842;1238;45801;-72
2023/05/17 10:14:44;;;;;;;;;22.50;19.00;25.20;45.20;;;;;;111904;1240;54978;-69
2023/05/17 10:17:12;;;;;;;;;25.75;17.50;25.20;45.30;;;;;;111808;1241;54968;-70
2023/05/17 10:19:40;;;;;;;;;22.00;18.50;25.20;45.20;;;;;;111542;1243;49744;-69
2023/05/17 10:22:08;;;;;;;;;21.50;16.50;25.20;45.10;;;;;;111870;1236;49278;-71
2023/05/17 10:24:38;;;;;;;;;25.00;20.00;25.20;45.70;;;;;;112063;1239;46613;-76
2023/05/17 10:27:08;;;;;;;;;14.00;12.75;25.10;45.50;;;;;;111999;1236;54925;-76
2023/05/17 10:29:37;;;;;;;;;17.25;14.25;25.10;45.70;;;;;;112007;1237;54732;-74
2023/05/17 10:32:06;;;;;;;;;20.50;18.00;25.20;45.50;;;;;;112011;1237;49514;-71
2023/05/17 10:34:35;;;;;;;;;16.00;14.75;25.10;45.00;;;;;;112247;1237;49673;-71
2023/05/17 10:37:03;;;;;;;;;12.75;11.75;25.10;45.00;;;;;;111970;1240;46390;-70
2023/05/17 10:39:33;;;;;;;;;15.50;14.00;25.10;44.70;;;;;;111981;1237;55242;-73
2023/05/17 10:42:02;;;;;;;;;15.67;13.67;25.10;44.50;;;;;;111960;1237;54063;-71
2023/05/17 10:44:32;;;;;;;;;16.67;13.33;25.10;44.30;;;;;;111689;1238;49292;-71
2023/05/17 10:46:59;;;;;;;;;17.00;15.00;25.10;44.30;;;;;;111836;1241;49904;-74
2023/05/17 10:49:31;;;;;;;;;19.00;18.00;25.20;44.40;;;;;;111937;1236;46004;-76
2023/05/17 10:52:13;;;;;;;;;21.33;20.00;25.10;44.70;;;;;;111769;1238;55587;-75
2023/05/17 10:54:42;;;;;;;;;30.00;23.00;25.20;45.20;;;;;;111691;1238;54930;-72
2023/05/17 10:57:19;;;;;;;;;33.33;25.67;25.20;45.40;;;;;;111600;1242;49377;-75
2023/05/17 10:59:57;;;;;;;;;29.00;24.75;25.20;45.30;;;;;;111838;1240;50500;-77
2023/05/17 11:02:26;;;;;;;;;20.00;18.00;25.20;45.50;;;;;;112446;1237;45746;-72
2023/05/17 11:04:55;;;;;;;;;26.00;21.25;25.20;45.30;;;;;;112316;1237;55786;-69
2023/05/17 11:07:28;;;;;;;;;26.25;21.00;25.30;45.20;;;;;;112090;1238;53690;-70
2023/05/17 11:10:05;;;;;;;;;25.50;23.50;25.30;45.00;;;;;;112072;1236;48978;-71
2023/05/17 11:12:37;;;;;;;;;36.00;26.75;25.30;45.20;;;;;;112074;1236;50623;-72
2023/05/17 11:15:09;;;;;;;;;28.67;24.67;25.30;45.10;;;;;;112287;1238;46286;-72
2023/05/17 11:17:43;;;;;;;;;27.00;22.75;25.30;45.00;;;;;;112155;1236;55938;-74
2023/05/17 11:20:31;;;;;;;;;26.50;22.00;25.40;45.00;;;;;;112369;1238;53654;-69
2023/05/17 11:23:01;;;;;;;;;28.50;23.00;25.40;44.70;;;;;;112306;1240;50690;-70
2023/05/17 11:25:30;;;;;;;;;32.00;24.00;25.50;44.80;;;;;;112364;1237;49796;-68
2023/05/17 11:27:58;;;;;;;;;27.50;23.00;25.50;44.80;;;;;;112173;1237;47246;-71
2023/05/17 11:30:28;;;;;;;;;29.00;26.25;25.60;44.70;;;;;;111976;1237;55979;-74
2023/05/17 11:33:03;;;;;;;;;34.25;25.50;25.60;44.80;;;;;;112261;1240;54615;-72
2023/05/17 11:35:37;;;;;;;;;32.25;24.00;25.60;44.70;;;;;;112496;1240;49940;-75
2023/05/17 11:38:18;;;;;;;;;27.50;22.75;25.60;44.70;;;;;;112200;1237;49537;-67
2023/05/17 11:40:46;;;;;;;;;20.75;18.50;25.70;44.60;;;;;;112068;1237;45893;-71
2023/05/17 11:43:22;;;;;;;;;32.00;25.50;25.80;44.80;;;;;;111999;1242;56896;-73
2023/05/17 11:45:53;;;;;;;;;30.00;26.33;25.80;44.70;;;;;;112537;1237;54123;-77
2023/05/17 11:48:22;;;;;;;;;32.75;26.50;25.80;44.60;;;;;;112326;1237;48937;-74
2023/05/17 11:50:50;;;;;;;;;33.50;26.50;25.90;45.00;;;;;;112325;1236;50025;-70
2023/05/17 11:53:18;;;;;;;;;28.00;27.00;25.90;44.70;;;;;;112114;1241;45435;-73
2023/05/17 11:55:47;;;;;;;;;31.50;23.50;25.90;44.40;;;;;;112466;1236;55572;-76
2023/05/17 11:58:15;;;;;;;;;30.25;23.75;26.00;44.40;;;;;;112378;1241;53615;-71
2023/05/17 12:00:43;;;;;;;;;33.25;24.00;26.00;44.50;;;;;;112272;1237;49473;-70
2023/05/17 12:03:30;;;;;;;;;30.00;22.75;26.00;44.30;;;;;;112227;1236;49113;-72
2023/05/17 12:06:14;;;;;;;;;32.00;20.00;26.10;44.40;;;;;;111974;1237;45891;-73
2023/05/17 12:08:45;;;;;;;;;39.00;30.00;26.10;44.70;;;;;;111634;1237;55658;-77
2023/05/17 12:11:16;;;;;;;;;51.00;38.50;26.00;44.40;;;;;;111743;1240;53912;-75
2023/05/17 12:13:45;;;;;;;;;44.25;32.50;26.00;44.70;;;;;;111789;1238;50309;-75
2023/05/17 12:16:14;;;;;;;;;30.00;23.00;26.10;44.70;;;;;;112133;1240;49516;-75
2023/05/17 12:18:43;;;;;;;;;23.75;19.50;26.00;44.60;;;;;;111865;1237;46460;-73
2023/05/17 12:21:13;;;;;;;;;25.00;23.67;26.00;44.90;;;;;;111680;1237;55702;-72
2023/05/17 12:23:45;;;;;;;;;23.00;17.00;26.00;44.60;;;;;;111786;1240;54096;-72
2023/05/17 12:26:14;;;;;;;;;16.00;13.25;26.00;44.30;;;;;;111710;1240;50506;-74